Terminal Aerodrome Forecast
Issued by NWS

Home | Current Version | Previous Version | Text Only | Print | Product List | Glossary On
Versions: 1 2 3 4 5 6 7 8 9 10 11 12 13 14 15 16
030
FTUS43 KLSX 211135
TAFCPS
TAF
KCPS 211135Z 2112/2212 VRB04KT P6SM OVC025
      TEMPO 2112/2114 2SM BR
     FM211800 16012KT P6SM BKN030
     FM220600 16013G21KT 5SM -SHRA VCTS OVC025CB=

USA.gov is the U.S. government's official web portal to all federal, state and local government web resources and services.